createdAt,value
2018-08-28T00:00:00.724Z,4.13
2018-08-28T00:02:32.195Z,3.90
2018-08-28T00:05:04.827Z,5.63
2018-08-28T00:07:36.846Z,4.30
2018-08-28T00:10:09.517Z,4.37
2018-08-28T00:12:41.245Z,4.70
2018-08-28T00:15:13.297Z,4.87
2018-08-28T00:17:44.877Z,3.70
2018-08-28T00:20:16.529Z,3.37
2018-08-28T00:22:47.911Z,4.03
2018-08-28T00:25:21.300Z,4.50
2018-08-28T00:27:51.618Z,4.20
2018-08-28T00:30:22.270Z,4.33
2018-08-28T00:32:52.854Z,3.47
2018-08-28T00:35:24.439Z,3.33
2018-08-28T00:37:55.469Z,3.70
2018-08-28T00:40:27.379Z,3.30
2018-08-28T00:42:58.539Z,3.87
2018-08-28T00:45:32.299Z,3.37
2018-08-28T00:48:09.949Z,4.00
2018-08-28T00:50:41.380Z,3.37
2018-08-28T00:53:18.369Z,4.03
2018-08-28T00:55:57.953Z,4.27
2018-08-28T00:58:29.463Z,4.37
2018-08-28T01:01:01.293Z,5.23
2018-08-28T01:03:40.470Z,3.83
2018-08-28T01:06:19.880Z,3.93
2018-08-28T01:08:59.607Z,3.63
2018-08-28T01:11:30.013Z,4.17
2018-08-28T01:14:09.886Z,5.30
2018-08-28T01:16:41.363Z,3.63
2018-08-28T01:19:12.543Z,3.77
2018-08-28T01:21:44.824Z,4.00
2018-08-28T01:24:15.893Z,3.70
2018-08-28T01:26:50.484Z,6.43
2018-08-28T01:29:30.569Z,4.23
2018-08-28T01:32:02.219Z,4.93
2018-08-28T01:34:42.327Z,3.77
2018-08-28T01:37:21.315Z,4.23
2018-08-28T01:40:01.407Z,5.20
2018-08-28T01:42:38.267Z,4.10
2018-08-28T01:45:09.957Z,4.80
2018-08-28T01:47:49.287Z,3.97
2018-08-28T01:50:19.666Z,3.70
2018-08-28T01:52:51.908Z,4.40
2018-08-28T01:55:23.138Z,3.60
2018-08-28T01:58:02.982Z,4.50
2018-08-28T02:00:40.255Z,3.90
2018-08-28T02:03:11.893Z,3.77
2018-08-28T02:05:43.424Z,3.40
2018-08-28T02:08:14.843Z,3.93
2018-08-28T02:10:55.335Z,4.40
2018-08-28T02:13:26.005Z,3.83
2018-08-28T02:15:57.786Z,5.20
2018-08-28T02:18:37.129Z,4.00
2018-08-28T02:21:08.576Z,3.83
2018-08-28T02:23:45.147Z,3.80
2018-08-28T02:26:15.989Z,3.67
2018-08-28T02:28:48.050Z,5.13
2018-08-28T02:31:25.924Z,3.93
2018-08-28T02:33:56.635Z,4.40
2018-08-28T02:36:27.976Z,4.30
2018-08-28T02:38:59.346Z,3.83
2018-08-28T02:41:30.761Z,4.17
2018-08-28T02:44:02.391Z,4.57
2018-08-28T02:46:33.795Z,4.20
2018-08-28T02:49:04.671Z,4.30
2018-08-28T02:51:43.493Z,4.00
2018-08-28T02:54:24.494Z,4.00
2018-08-28T02:57:04.133Z,4.93
2018-08-28T02:59:37.294Z,4.67
2018-08-28T03:02:08.584Z,3.43
2018-08-28T03:04:39.079Z,4.20
2018-08-28T03:07:10.796Z,4.17
2018-08-28T03:09:50.348Z,4.27
2018-08-28T03:12:21.654Z,4.00
2018-08-28T03:15:02.144Z,4.13
2018-08-28T03:17:41.617Z,4.07
2018-08-28T03:20:13.146Z,4.53
2018-08-28T03:22:44.697Z,5.33
2018-08-28T03:25:24.372Z,4.97
2018-08-28T03:28:04.080Z,5.87
2018-08-28T03:30:35.803Z,3.80
2018-08-28T03:33:08.003Z,3.93
2018-08-28T03:38:06.574Z,4.97
2018-08-28T03:40:47.091Z,4.23
2018-08-28T03:43:18.398Z,7.10
2018-08-28T03:45:49.890Z,3.83
2018-08-28T03:48:21.346Z,4.73
2018-08-28T03:51:00.892Z,4.20
2018-08-28T03:53:41.171Z,4.67
2018-08-28T03:56:12.922Z,3.73
2018-08-28T03:58:44.766Z,4.70
2018-08-28T04:01:16.778Z,6.23
2018-08-28T04:03:48.431Z,4.23
2018-08-28T04:06:20.072Z,4.97
2018-08-28T04:08:51.160Z,5.10
2018-08-28T04:11:22.670Z,4.73
2018-08-28T04:13:55.071Z,4.50
2018-08-28T04:18:52.890Z,4.90
2018-08-28T04:21:24.590Z,4.13
2018-08-28T04:23:56.200Z,4.87
2018-08-28T04:26:26.922Z,4.57
2018-08-28T04:28:58.821Z,3.90
2018-08-28T04:31:30.144Z,5.07
2018-08-28T04:34:02.511Z,5.10
2018-08-28T04:36:34.161Z,7.57
2018-08-28T04:39:06.714Z,4.17
2018-08-28T04:41:44.743Z,4.33
2018-08-28T04:44:17.355Z,4.10
2018-08-28T04:46:50.316Z,4.70
2018-08-28T04:49:29.823Z,4.13
2018-08-28T04:52:09.268Z,4.00
2018-08-28T04:54:49.546Z,4.40
2018-08-28T04:57:20.860Z,4.47
2018-08-28T05:00:00.463Z,6.43
2018-08-28T05:02:35.523Z,4.10
2018-08-28T05:05:10.246Z,4.20
2018-08-28T05:07:41.793Z,4.33
2018-08-28T05:10:12.433Z,5.13
2018-08-28T05:12:43.547Z,4.33
2018-08-28T05:15:14.046Z,4.83
2018-08-28T05:17:45.867Z,4.50
2018-08-28T05:20:16.557Z,5.93
2018-08-28T05:22:48.416Z,5.03
2018-08-28T05:25:19.936Z,5.37
2018-08-28T05:27:52.247Z,4.70
2018-08-28T05:30:24.391Z,4.27
2018-08-28T05:32:55.467Z,5.77
2018-08-28T05:35:27.608Z,5.20
2018-08-28T05:37:59.121Z,4.00
2018-08-28T05:40:29.503Z,4.27
2018-08-28T05:43:01.345Z,4.53
2018-08-28T05:45:32.447Z,4.27
2018-08-28T05:48:03.562Z,6.43
2018-08-28T05:50:40.222Z,4.17
2018-08-28T05:53:11.052Z,4.37
2018-08-28T05:55:43.330Z,5.33
2018-08-28T05:58:13.732Z,4.23
2018-08-28T06:00:44.793Z,5.13
2018-08-28T06:03:16.656Z,4.50
2018-08-28T06:05:48.029Z,4.43
2018-08-28T06:08:20.703Z,6.10
2018-08-28T06:10:52.352Z,3.73
2018-08-28T06:13:33.660Z,3.80
2018-08-28T06:16:11.658Z,3.80
2018-08-28T06:18:46.088Z,4.33
2018-08-28T06:21:26.305Z,6.10
2018-08-28T06:24:04.594Z,3.77
2018-08-28T06:26:42.963Z,4.00
2018-08-28T06:29:14.447Z,4.83
2018-08-28T06:31:44.994Z,4.63
2018-08-28T06:34:16.014Z,9.83
2018-08-28T06:36:47.082Z,5.03
2018-08-28T06:39:19.054Z,3.80
2018-08-28T06:41:51.144Z,4.27
2018-08-28T06:44:22.686Z,4.40
2018-08-28T06:46:54.694Z,5.00
2018-08-28T06:49:25.893Z,5.23
2018-08-28T06:51:57.172Z,3.73
2018-08-28T06:54:28.944Z,5.37
2018-08-28T06:57:01.965Z,4.00
2018-08-28T06:59:41.737Z,5.00
2018-08-28T07:02:13.543Z,4.47
2018-08-28T07:04:46.268Z,3.50
2018-08-28T07:07:18.234Z,6.33
2018-08-28T07:09:58.358Z,4.13
2018-08-28T07:12:38.085Z,5.53
2018-08-28T07:15:10.037Z,4.40
2018-08-28T07:17:44.867Z,4.17
2018-08-28T07:20:15.365Z,5.17
2018-08-28T07:22:45.398Z,3.90
2018-08-28T07:25:16.817Z,4.50
2018-08-28T07:27:47.657Z,3.73
2018-08-28T07:30:19.797Z,3.50
2018-08-28T07:33:00.438Z,4.93
2018-08-28T07:35:31.856Z,4.23
2018-08-28T07:38:04.520Z,4.57
2018-08-28T07:40:43.686Z,3.60
2018-08-28T07:43:23.946Z,3.83
2018-08-28T07:46:03.681Z,3.20
2018-08-28T07:48:44.656Z,4.27
2018-08-28T07:51:24.485Z,3.87
2018-08-28T07:53:57.269Z,4.00
2018-08-28T07:56:32.505Z,3.57
2018-08-28T07:59:12.401Z,6.67
2018-08-28T08:01:50.327Z,4.30
2018-08-28T08:04:31.467Z,4.40
2018-08-28T08:07:10.841Z,4.60
2018-08-28T08:09:50.742Z,4.90
2018-08-28T08:12:22.636Z,3.73
2018-08-28T08:15:01.849Z,4.77
2018-08-28T08:17:41.382Z,6.07
2018-08-28T08:20:18.085Z,5.03
2018-08-28T08:22:54.175Z,3.80
2018-08-28T08:25:33.064Z,4.37
2018-08-28T08:28:12.899Z,5.13
2018-08-28T08:30:52.593Z,4.43
2018-08-28T08:33:32.576Z,4.20
2018-08-28T08:36:12.100Z,3.80
2018-08-28T08:38:50.324Z,3.63
2018-08-28T08:41:29.732Z,4.30
2018-08-28T08:44:09.680Z,3.63
2018-08-28T08:46:49.759Z,4.87
2018-08-28T08:49:26.426Z,4.17
2018-08-28T08:52:06.989Z,3.37
2018-08-28T08:54:46.862Z,3.60
2018-08-28T08:57:27.446Z,4.03
2018-08-28T09:00:05.872Z,6.43
2018-08-28T09:02:46.236Z,3.50
2018-08-28T09:05:23.467Z,4.13
2018-08-28T09:08:00.454Z,3.83
2018-08-28T09:10:40.005Z,3.13
2018-08-28T09:13:19.115Z,3.97
2018-08-28T09:15:58.520Z,3.97
2018-08-28T09:18:38.038Z,3.67
2018-08-28T09:21:17.881Z,4.37
2018-08-28T09:23:53.941Z,3.77
2018-08-28T09:26:29.180Z,3.40
2018-08-28T09:29:08.859Z,3.20
2018-08-28T09:31:45.559Z,3.57
2018-08-28T09:34:17.317Z,4.27
2018-08-28T09:36:49.356Z,3.17
2018-08-28T09:39:25.296Z,4.00
2018-08-28T09:41:58.023Z,3.03
2018-08-28T09:44:32.625Z,2.97
2018-08-28T09:47:04.835Z,3.37
2018-08-28T09:49:41.897Z,3.47
2018-08-28T09:52:17.732Z,3.03
2018-08-28T09:54:55.976Z,4.20
2018-08-28T09:57:33.313Z,3.90
2018-08-28T10:00:14.478Z,3.43
2018-08-28T10:02:46.859Z,2.50
2018-08-28T10:05:27.098Z,3.87
2018-08-28T10:08:04.971Z,2.80
2018-08-28T10:10:40.998Z,2.77
2018-08-28T10:13:18.037Z,3.10
2018-08-28T10:15:56.677Z,2.60
2018-08-28T10:18:36.477Z,2.50
2018-08-28T10:21:16.197Z,2.53
2018-08-28T10:23:53.520Z,2.33
2018-08-28T10:26:30.215Z,2.40
2018-08-28T10:29:09.641Z,2.40
2018-08-28T10:31:48.658Z,3.40
2018-08-28T10:34:22.980Z,2.67
2018-08-28T10:36:59.559Z,3.13
2018-08-28T10:39:39.375Z,3.00
2018-08-28T10:42:18.921Z,3.27
2018-08-28T10:44:58.234Z,2.23
2018-08-28T10:47:38.380Z,2.60
2018-08-28T10:50:18.140Z,2.47
2018-08-28T10:52:58.584Z,3.30
2018-08-28T10:55:36.697Z,2.77
2018-08-28T10:58:12.960Z,2.67
2018-08-28T11:00:52.303Z,2.80
2018-08-28T11:03:31.690Z,2.07
2018-08-28T11:06:04.056Z,2.33
2018-08-28T11:08:40.390Z,2.80
2018-08-28T11:11:35.072Z,2.60
2018-08-28T11:14:21.052Z,2.20
2018-08-28T11:16:57.500Z,2.97
2018-08-28T11:19:37.389Z,3.03
2018-08-28T11:22:17.271Z,2.47
2018-08-28T11:24:53.507Z,2.50
2018-08-28T11:27:31.487Z,2.83
2018-08-28T11:30:11.884Z,2.50
2018-08-28T11:32:51.257Z,2.60
2018-08-28T11:35:27.589Z,2.60
2018-08-28T11:38:07.472Z,2.70
2018-08-28T11:40:47.555Z,2.70
2018-08-28T11:43:20.417Z,3.93
2018-08-28T11:46:00.202Z,2.60
2018-08-28T11:48:40.798Z,4.33
2018-08-28T11:51:20.727Z,4.57
2018-08-28T11:54:00.898Z,4.30
2018-08-28T11:56:35.517Z,4.17
2018-08-28T11:59:11.915Z,4.10
2018-08-28T12:01:51.173Z,2.60
2018-08-28T12:04:32.246Z,3.20
2018-08-28T12:07:08.966Z,4.70
2018-08-28T12:09:49.328Z,3.80
2018-08-28T12:12:26.544Z,3.90
2018-08-28T12:15:05.499Z,3.77
2018-08-28T12:17:45.139Z,3.17
2018-08-28T12:20:24.398Z,4.23
2018-08-28T12:23:04.093Z,4.23
2018-08-28T12:25:36.092Z,3.80
2018-08-28T12:28:13.784Z,6.43
2018-08-28T12:30:49.919Z,4.37
2018-08-28T12:33:29.474Z,3.27
2018-08-28T12:36:09.296Z,4.30
2018-08-28T12:38:46.399Z,3.73
2018-08-28T12:41:25.767Z,4.30
2018-08-28T12:44:05.870Z,4.70
2018-08-28T12:46:44.179Z,3.90
2018-08-28T12:49:23.720Z,5.07
2018-08-28T12:52:03.513Z,4.53
2018-08-28T12:54:43.372Z,4.03
2018-08-28T12:57:23.472Z,4.30
2018-08-28T13:00:02.691Z,4.37
2018-08-28T13:02:41.882Z,4.57
2018-08-28T13:05:18.817Z,3.87
2018-08-28T13:07:57.357Z,4.17
2018-08-28T13:10:37.648Z,4.10
2018-08-28T13:13:17.482Z,4.53
2018-08-28T13:15:57.150Z,5.13
2018-08-28T13:18:33.101Z,5.20
2018-08-28T13:21:13.699Z,3.87
2018-08-28T13:23:51.286Z,3.83
2018-08-28T13:26:27.436Z,4.60
2018-08-28T13:29:05.515Z,4.30
2018-08-28T13:31:45.256Z,4.23
2018-08-28T13:34:24.677Z,5.33
2018-08-28T13:37:03.787Z,4.63
2018-08-28T13:39:42.941Z,5.20
2018-08-28T13:42:22.932Z,4.03
2018-08-28T13:45:03.054Z,4.17
2018-08-28T13:47:42.782Z,5.03
2018-08-28T13:50:22.543Z,4.70
2018-08-28T13:53:01.128Z,4.77
2018-08-28T13:55:40.259Z,5.60
2018-08-28T13:58:19.434Z,5.30
2018-08-28T14:00:59.385Z,4.37
2018-08-28T14:03:35.711Z,4.30
2018-08-28T14:06:13.984Z,4.87
2018-08-28T14:08:53.705Z,4.87
2018-08-28T14:11:33.509Z,4.67
2018-08-28T14:14:05.281Z,5.80
2018-08-28T14:16:37.976Z,4.87
2018-08-28T14:19:14.738Z,5.23
2018-08-28T14:21:54.864Z,4.60
2018-08-28T14:24:35.607Z,6.10
2018-08-28T14:27:15.663Z,5.17
2018-08-28T14:29:52.902Z,4.87
2018-08-28T14:32:30.308Z,6.53
2018-08-28T14:35:07.196Z,6.33
2018-08-28T14:37:47.305Z,4.57
2018-08-28T14:40:26.987Z,4.93
2018-08-28T14:43:07.120Z,5.23
2018-08-28T14:45:47.046Z,4.90
2018-08-28T14:48:26.354Z,4.70
2018-08-28T14:51:06.310Z,4.60
2018-08-28T14:53:46.036Z,4.23
2018-08-28T14:56:26.501Z,7.13
2018-08-28T14:59:03.749Z,4.60
2018-08-28T15:01:43.042Z,4.77
2018-08-28T15:04:22.531Z,5.87
2018-08-28T15:07:02.097Z,5.27
2018-08-28T15:09:41.665Z,5.57
2018-08-28T15:12:20.927Z,5.57
2018-08-28T15:15:00.744Z,5.90
2018-08-28T15:17:38.532Z,6.60
2018-08-28T15:20:18.455Z,6.40
2018-08-28T15:22:54.392Z,5.20
2018-08-28T15:25:31.993Z,5.80
2018-08-28T15:28:11.497Z,5.00
2018-08-28T15:30:50.426Z,6.43
2018-08-28T15:33:30.039Z,8.33
2018-08-28T15:36:10.927Z,5.13
2018-08-28T15:38:51.048Z,4.70
2018-08-28T15:41:31.376Z,6.27
2018-08-28T15:44:12.039Z,4.70
2018-08-28T15:46:51.774Z,5.60
2018-08-28T15:49:28.272Z,4.97
2018-08-28T15:52:05.270Z,5.20
2018-08-28T15:54:45.573Z,7.07
2018-08-28T15:57:21.694Z,7.03
2018-08-28T16:00:01.442Z,5.53
2018-08-28T16:02:39.085Z,6.23
2018-08-28T16:05:19.942Z,5.10
2018-08-28T16:07:59.653Z,7.20
2018-08-28T16:10:38.583Z,5.20
2018-08-28T16:13:17.621Z,6.13
2018-08-28T16:15:57.369Z,5.67
2018-08-28T16:18:35.265Z,6.50
2018-08-28T16:21:15.198Z,5.37
2018-08-28T16:23:56.329Z,6.10
2018-08-28T16:26:36.113Z,5.73
2018-08-28T16:29:16.263Z,6.00
2018-08-28T16:31:47.683Z,5.17
2018-08-28T16:34:18.342Z,5.80
2018-08-28T16:36:58.207Z,6.70
2018-08-28T16:39:29.413Z,6.77
2018-08-28T16:42:02.349Z,7.03
2018-08-28T16:44:33.380Z,5.47
2018-08-28T16:47:04.479Z,5.83
2018-08-28T16:49:35.640Z,7.53
2018-08-28T16:52:08.119Z,7.00
2018-08-28T16:54:39.899Z,9.00
2018-08-28T16:57:13.379Z,5.67
2018-08-28T16:59:44.922Z,5.80
2018-08-28T17:02:25.043Z,6.43
2018-08-28T17:04:57.184Z,6.63
2018-08-28T17:07:28.535Z,5.83
2018-08-28T17:10:00.164Z,6.33
2018-08-28T17:12:31.044Z,6.07
2018-08-28T17:15:03.294Z,6.73
2018-08-28T17:17:37.883Z,5.93
2018-08-28T17:20:08.644Z,6.70
2018-08-28T17:22:41.643Z,6.50
2018-08-28T17:25:18.963Z,6.53
2018-08-28T17:27:49.753Z,8.80
2018-08-28T17:30:21.273Z,7.03
2018-08-28T17:32:51.753Z,8.47
2018-08-28T17:35:27.144Z,6.20
2018-08-28T17:37:59.813Z,6.90
2018-08-28T17:40:30.663Z,7.00
2018-08-28T17:43:01.933Z,7.07
2018-08-28T17:45:33.666Z,6.73
2018-08-28T17:48:04.953Z,8.93
2018-08-28T17:50:36.373Z,9.70
2018-08-28T17:53:07.423Z,7.07
2018-08-28T17:55:43.934Z,8.47
2018-08-28T17:58:15.326Z,8.70
2018-08-28T18:00:46.703Z,8.07
2018-08-28T18:03:17.684Z,7.80
2018-08-28T18:05:51.543Z,7.47
2018-08-28T18:08:23.896Z,9.10
2018-08-28T18:10:55.343Z,7.87
2018-08-28T18:13:26.154Z,9.20
2018-08-28T18:15:59.107Z,9.63
2018-08-28T18:18:29.823Z,8.37
2018-08-28T18:21:01.845Z,8.93
2018-08-28T18:23:33.226Z,7.47
2018-08-28T18:26:14.614Z,13.43
2018-08-28T18:28:45.549Z,7.40
2018-08-28T18:31:16.960Z,7.87
2018-08-28T18:33:48.324Z,9.23
2018-08-28T18:36:19.254Z,8.13
2018-08-28T18:38:56.632Z,7.30
2018-08-28T18:41:28.625Z,8.73
2018-08-28T18:43:59.944Z,8.60
2018-08-28T18:46:33.124Z,8.80
2018-08-28T18:49:13.281Z,8.53
2018-08-28T18:51:52.815Z,7.87
2018-08-28T18:54:32.711Z,10.17
2018-08-28T18:57:13.220Z,9.83
2018-08-28T18:59:53.041Z,8.97
2018-08-28T19:02:30.221Z,10.00
2018-08-28T19:05:10.723Z,8.90
2018-08-28T19:07:50.496Z,9.53
2018-08-28T19:10:30.462Z,8.53
2018-08-28T19:13:09.994Z,8.50
2018-08-28T19:15:41.993Z,10.07
2018-08-28T19:18:21.872Z,7.83
2018-08-28T19:21:02.073Z,7.70
2018-08-28T19:23:42.365Z,7.87
2018-08-28T19:26:23.204Z,9.10
2018-08-28T19:29:03.338Z,11.10
2018-08-28T19:31:43.121Z,9.13
2018-08-28T19:34:24.402Z,9.83
2018-08-28T19:37:04.299Z,12.03
2018-08-28T19:39:44.124Z,9.10
2018-08-28T19:42:15.943Z,9.03
2018-08-28T19:44:54.319Z,8.30
2018-08-28T19:47:34.299Z,8.77
2018-08-28T19:50:14.584Z,7.73
2018-08-28T19:52:54.677Z,8.50
2018-08-28T19:55:34.477Z,10.30
2018-08-28T19:58:14.699Z,7.90
2018-08-28T20:00:54.167Z,8.00
2018-08-28T20:03:33.494Z,9.03
2018-08-28T20:06:09.501Z,9.77
2018-08-28T20:08:49.029Z,9.53
2018-08-28T20:11:29.165Z,8.57
2018-08-28T20:14:09.865Z,7.73
2018-08-28T20:16:49.101Z,9.13
2018-08-28T20:19:20.984Z,8.90
2018-08-28T20:21:59.909Z,8.80
2018-08-28T20:24:40.314Z,7.90
2018-08-28T20:27:20.053Z,9.43
2018-08-28T20:29:59.481Z,8.43
2018-08-28T20:32:39.458Z,11.47
2018-08-28T20:35:15.676Z,9.33
2018-08-28T20:37:53.100Z,8.83
2018-08-28T20:40:32.578Z,9.37
2018-08-28T20:43:12.680Z,11.53
2018-08-28T20:45:52.597Z,8.23
2018-08-28T20:48:32.781Z,9.90
2018-08-28T20:51:12.416Z,9.63
2018-08-28T20:53:52.014Z,7.90
2018-08-28T20:56:25.023Z,7.93
2018-08-28T20:59:01.363Z,7.87
2018-08-28T21:01:38.653Z,8.93
2018-08-28T21:04:18.006Z,8.13
2018-08-28T21:06:57.989Z,6.87
2018-08-28T21:09:37.934Z,8.93
2018-08-28T21:12:17.423Z,8.63
2018-08-28T21:14:57.215Z,8.33
2018-08-28T21:17:36.793Z,7.13
2018-08-28T21:20:09.552Z,7.97
2018-08-28T21:22:45.478Z,7.33
2018-08-28T21:25:18.773Z,7.80
2018-08-28T21:27:50.043Z,8.57
2018-08-28T21:30:22.169Z,7.70
2018-08-28T21:32:53.859Z,7.53
2018-08-28T21:35:24.939Z,8.27
2018-08-28T21:37:56.056Z,7.97
2018-08-28T21:40:28.350Z,9.77
2018-08-28T21:42:59.700Z,7.57
2018-08-28T21:45:31.775Z,7.87
2018-08-28T21:48:11.731Z,9.10
2018-08-28T21:50:44.431Z,8.43
2018-08-28T21:53:16.071Z,7.93
2018-08-28T21:55:47.373Z,8.10
2018-08-28T21:58:19.095Z,7.23
2018-08-28T22:01:01.434Z,10.07
2018-08-28T22:03:33.024Z,9.90
2018-08-28T22:06:04.157Z,8.90
2018-08-28T22:08:36.183Z,8.50
2018-08-28T22:11:11.903Z,7.93
2018-08-28T22:13:43.426Z,8.67
2018-08-28T22:16:23.330Z,8.07
2018-08-28T22:18:55.280Z,8.37
2018-08-28T22:21:25.999Z,8.30
2018-08-28T22:23:57.520Z,7.97
2018-08-28T22:26:28.370Z,7.20
2018-08-28T22:28:59.520Z,8.30
2018-08-28T22:31:31.001Z,8.97
2018-08-28T22:34:02.390Z,8.07
2018-08-28T22:36:34.510Z,8.67
2018-08-28T22:39:07.376Z,7.90
2018-08-28T22:41:39.786Z,8.70
2018-08-28T22:44:11.095Z,9.50
2018-08-28T22:46:42.387Z,7.90
2018-08-28T22:49:14.295Z,7.20
2018-08-28T22:51:46.196Z,7.50
2018-08-28T22:54:18.876Z,8.50
2018-08-28T22:56:50.137Z,7.93
2018-08-28T22:59:21.487Z,9.00
2018-08-28T23:01:52.739Z,9.03
2018-08-28T23:04:25.406Z,6.90
2018-08-28T23:06:56.377Z,8.13
2018-08-28T23:09:28.016Z,8.17
2018-08-28T23:11:58.866Z,9.33
2018-08-28T23:14:30.336Z,7.67
2018-08-28T23:17:01.671Z,7.83
2018-08-28T23:19:34.142Z,8.10
2018-08-28T23:22:05.866Z,7.57
2018-08-28T23:24:38.336Z,8.93
2018-08-28T23:27:10.948Z,8.33
2018-08-28T23:29:42.644Z,8.40
2018-08-28T23:32:15.257Z,7.43
2018-08-28T23:34:47.416Z,7.53
2018-08-28T23:37:19.197Z,7.70
2018-08-28T23:39:51.346Z,8.00
2018-08-28T23:42:22.136Z,8.07
2018-08-28T23:44:53.397Z,6.97
2018-08-28T23:47:25.109Z,7.33
2018-08-28T23:49:56.176Z,8.90
2018-08-28T23:52:29.396Z,8.77
2018-08-28T23:55:02.197Z,11.10
2018-08-28T23:57:34.067Z,9.47
